Airfield :
LOGIN :

Register | Disclaimer

   EN    FR    IT 

 










Legend :    VFR   Marginal VFR   IFR   Intensive IFR   Very Intensive IFR
Visi :
Ceiling :
>= 8 km
>= 3000ft
5 to 8 km
1000 to 3000 ft
1500m to 5 km
500 to 1000 ft
800 to 1500m
200 to 500 ft
< 800m
< 200 ft
Symbols :   Thunderstorms  Fog  Heavy snow  Heavy precipitations  Wind > 20 kt
SIGMETs :     Misc.  Thunderstorms  Icing  Turbulence  Mountain Waves  Volcanic Ashes






- Airport Elevation : 42 ft
- IATA code : KGD


UMKK - Khrabrava - Kaliningrad

CURRENT METAR :
  • 171030Z 11003MPS 9000 NSC 09/06 Q1020 R24/290095 NOSIG RMK QFE764/1018

EXPIRED METARs :
  • 171000Z 12003MPS 090V160 CAVOK 08/06 Q1020 R24/290095 NOSIG RMK QFE764/1019
  • 170930Z 09003MPS CAVOK 08/06 Q1020 R24/290095 NOSIG RMK QFE764/1019
  • 170900Z VRB01MPS CAVOK 08/06 Q1020 R24/290095 NOSIG RMK QFE764/1019
  • 170830Z 00000MPS CAVOK 08/05 Q1020 R24/290095 NOSIG RMK QFE764/1019
  • 170800Z 21002MPS 190V250 CAVOK 07/05 Q1020 R24/290095 NOSIG RMK QFE764/1019

TAF TAF UMKK
Valid from the 17 at 09:00 until the 18 at 09:00 UTC


170758Z 1709/1809 10003G08MPS 4000 BR FEW005 SCT011
TEMPO 1709/1712 1400 BR BKN003
BECMG 1712/1714 1400 BR BKN004 OVC007
TEMPO 1714/1801 0300 -DZ FG VV001
BECMG 1718/1720 12006G11MPS
BECMG 1801/1803 5000 BR FEW004 BKN007



MET'MAP, your aeronautical weather chart ! - Copyright ORBIFLY December 2007 - Disclaimer

ORBIFLY MET'MAP TEAM :

Programming & Development : Alexandra Zaïnal
Concept & Development : Baudouin d'Aumeries
Co-Development & Prog : Marc-Olivier Méhu
Technical & hardware support : Manuel Goepfert

Contact : metmap@orbifly.com




SOURCES & CREDITS :

   NOAA